Time;durP1;ratioP1;P1;durP2;ratioP2;P2;SDS_P1;SDS_P2;PMS_P1;PMS_P2;Temp;Humidity;BMP_temperature;BMP_pressure;BME280_temperature;BME280_humidity;BME280_pressure;Samples;Min_cycle;Max_cycle;Signal;HPM_P1;HPM_P2
2022/09/14 00:01:21;;;;;;;5.93;4.95;;;;;;;21.97;67.40;100465.19;5033853;28;20053;-78
2022/09/14 00:04:13;;;;;;;15.48;5.00;;;;;;;22.12;67.35;100472.28;5037983;28;20361;-80
2022/09/14 00:06:58;;;;;;;7.53;5.00;;;;;;;22.20;66.41;100477.81;5036664;28;20052;-78
2022/09/14 00:09:44;;;;;;;8.63;5.30;;;;;;;22.28;66.17;100477.38;5037060;28;20489;-78
2022/09/14 00:12:28;;;;;;;7.32;4.82;;;;;;;22.22;66.26;100470.69;5035241;28;20079;-78
2022/09/14 00:15:13;;;;;;;8.40;5.15;;;;;;;22.16;66.93;100469.50;5033793;28;20048;-78
2022/09/14 00:17:58;;;;;;;13.77;5.32;;;;;;;22.24;67.19;100453.66;5033252;28;20056;-78
2022/09/14 00:20:42;;;;;;;6.53;5.35;;;;;;;22.10;67.50;100458.03;5033491;28;20428;-78
2022/09/14 00:23:27;;;;;;;7.00;5.03;;;;;;;22.03;67.40;100440.66;5033262;28;20049;-78
2022/09/14 00:26:15;;;;;;;8.25;5.47;;;;;;;21.98;67.42;100439.09;5035784;28;20048;-78
2022/09/14 00:29:03;;;;;;;5.70;5.07;;;;;;;22.14;66.78;100445.00;5033492;28;20053;-78
2022/09/14 00:31:48;;;;;;;7.47;5.50;;;;;;;22.12;67.17;100441.03;5032754;28;20044;-78
2022/09/14 00:34:33;;;;;;;8.55;5.43;;;;;;;22.19;67.49;100443.78;5035710;28;20049;-78
2022/09/14 00:37:18;;;;;;;6.35;5.10;;;;;;;21.76;68.88;100440.28;5032848;28;20056;-78
2022/09/14 00:40:03;;;;;;;8.90;5.10;;;;;;;21.87;67.85;100443.81;5033881;28;20515;-78
2022/09/14 00:42:48;;;;;;;6.70;5.03;;;;;;;21.97;67.67;100451.34;5036394;28;20048;-77
2022/09/14 00:45:33;;;;;;;12.20;4.93;;;;;;;21.99;67.36;100448.19;5030358;28;20048;-77
2022/09/14 00:48:20;;;;;;;14.10;4.82;;;;;;;21.73;68.58;100449.38;5032352;28;20072;-77
2022/09/14 00:51:05;;;;;;;9.13;5.05;;;;;;;21.63;69.42;100450.97;5032592;28;20061;-77
2022/09/14 00:53:51;;;;;;;8.50;5.10;;;;;;;21.50;69.73;100447.00;5032448;28;20040;-77
2022/09/14 00:56:36;;;;;;;8.10;5.72;;;;;;;21.87;67.67;100441.06;5012606;28;20057;-77
2022/09/14 00:59:28;;;;;;;6.20;5.05;;;;;;;22.00;66.76;100441.44;5012566;28;20049;-77
2022/09/14 01:02:13;;;;;;;7.15;4.70;;;;;;;21.85;67.27;100445.41;5012854;28;20049;-77
2022/09/14 01:04:58;;;;;;;15.25;5.28;;;;;;;21.94;66.66;100441.06;5021589;28;20048;-79
2022/09/14 01:08:14;;;;;;;8.07;4.18;;;;;;;21.99;66.53;100428.81;5034400;28;20048;-78
2022/09/14 01:11:06;;;;;;;;;;;;;;;21.70;67.90;100428.03;5035606;28;20044;-78
2022/09/14 01:13:54;;;;;;;8.25;4.35;;;;;;;21.89;67.01;100419.28;5035405;28;19917;-78
2022/09/14 01:16:56;;;;;;;9.02;4.60;;;;;;;21.81;67.46;100417.72;5036441;28;20045;-79
2022/09/14 01:19:59;;;;;;;5.60;4.85;;;;;;;21.98;66.45;100414.16;5034510;28;20068;-79
2022/09/14 01:22:57;;;;;;;10.10;5.13;;;;;;;21.84;67.23;100410.63;5033999;28;20068;-80
2022/09/14 01:26:21;;;;;;;9.55;4.78;;;;;;;21.75;67.29;100399.94;5033678;28;20056;-79
2022/09/14 01:29:30;;;;;;;8.25;5.47;;;;;;;21.82;66.84;100396.38;5032830;28;20044;-78
2022/09/14 01:32:21;;;;;;;8.02;5.35;;;;;;;21.89;66.98;100388.81;5031725;28;20056;-78
2022/09/14 01:35:19;;;;;;;9.13;5.32;;;;;;;21.72;67.66;100376.63;5031833;28;20060;-77
2022/09/14 01:38:11;;;;;;;11.32;5.25;;;;;;;21.66;67.81;100378.22;5038028;28;20052;-79
2022/09/14 01:40:59;;;;;;;9.88;6.18;;;;;;;21.62;67.46;100365.56;5043156;28;20052;-79
2022/09/14 01:43:50;;;;;;;7.50;6.22;;;;;;;21.63;67.47;100372.69;5043053;28;20052;-79
2022/09/14 01:46:40;;;;;;;9.90;6.80;;;;;;;21.66;67.18;100369.13;5038567;28;20049;-79
2022/09/14 01:49:32;;;;;;;9.73;6.55;;;;;;;21.67;67.13;100365.97;5018576;28;20048;-79
2022/09/14 01:52:24;;;;;;;12.90;6.53;;;;;;;21.62;67.62;100373.88;5026176;28;20072;-79
2022/09/14 01:55:15;;;;;;;9.15;6.43;;;;;;;21.30;68.78;100366.41;5035081;28;20048;-80
2022/09/14 01:58:15;;;;;;;11.25;6.93;;;;;;;21.45;68.14;100366.38;5038634;28;20044;-79
2022/09/14 02:01:03;;;;;;;8.93;6.22;;;;;;;21.53;67.68;100376.28;5034373;28;20052;-78
2022/09/14 02:03:54;;;;;;;12.73;6.07;;;;;;;21.38;68.44;100371.94;5032765;28;20720;-79
2022/09/14 02:06:45;;;;;;;15.93;7.72;;;;;;;21.49;68.16;100364.38;5034489;28;20065;-79
2022/09/14 02:09:30;;;;;;;13.98;7.13;;;;;;;21.40;68.86;100352.94;5031388;28;20044;-77
2022/09/14 02:12:15;;;;;;;8.27;6.13;;;;;;;21.28;69.09;100345.88;5031510;28;20053;-77
2022/09/14 02:15:00;;;;;;;14.90;6.32;;;;;;;21.29;69.13;100350.19;5031056;28;20412;-77
2022/09/14 02:17:46;;;;;;;16.45;7.00;;;;;;;21.27;69.16;100353.38;5031429;28;20128;-77
2022/09/14 02:20:38;;;;;;;9.02;7.00;;;;;;;21.38;68.83;100344.28;5035905;28;20052;-77
2022/09/14 02:23:23;;;;;;;7.97;5.72;;;;;;;21.28;69.32;100341.09;5033651;28;20044;-77
2022/09/14 02:26:08;;;;;;;12.63;7.18;;;;;;;21.18;70.09;100336.38;5031063;28;20056;-77
2022/09/14 02:28:55;;;;;;;17.52;7.50;;;;;;;21.20;69.57;100322.94;5031450;28;20060;-77
2022/09/14 02:31:56;;;;;;;11.63;6.45;;;;;;;21.12;69.79;100328.84;5038185;28;20048;-79
2022/09/14 02:35:16;;;;;;;11.23;6.63;;;;;;;21.08;69.53;100326.06;5044094;28;20048;-79
2022/09/14 02:38:17;;;;;;;14.88;6.93;;;;;;;21.16;69.77;100315.84;5047901;28;20060;-80
2022/09/14 02:41:13;;;;;;;14.75;6.88;;;;;;;21.05;70.79;100313.06;5034455;28;20046;-78
2022/09/14 02:44:07;;;;;;;8.45;6.72;;;;;;;21.17;69.54;100326.50;5031633;28;20045;-78
2022/09/14 02:46:55;;;;;;;10.75;6.82;;;;;;;20.87;70.74;100337.16;5015972;28;20049;-78
2022/09/14 02:50:02;;;;;;;17.63;7.30;;;;;;;20.41;72.88;100337.06;5030688;28;20507;-78
2022/09/14 02:53:12;;;;;;;14.25;7.13;;;;;;;20.63;72.70;100340.66;5023104;28;20065;-78
2022/09/14 02:56:01;;;;;;;11.60;8.00;;;;;;;20.85;71.76;100337.53;5047224;22;20068;-77
2022/09/14 02:58:46;;;;;;;22.50;7.55;;;;;;;21.02;70.74;100332.41;5019267;28;20053;-78
2022/09/14 03:01:30;;;;;;;7.85;6.63;;;;;;;21.02;70.84;100326.88;5015148;28;20052;-78
2022/09/14 03:04:15;;;;;;;13.70;7.45;;;;;;;21.07;70.36;100334.78;5028647;28;20120;-79
2022/09/14 03:07:00;;;;;;;11.90;6.10;;;;;;;21.07;69.60;100332.00;5032163;28;20048;-80
2022/09/14 03:09:45;;;;;;;13.07;7.00;;;;;;;20.88;70.65;100333.97;5032972;28;20419;-78
2022/09/14 03:12:29;;;;;;;13.10;6.90;;;;;;;20.97;69.88;100325.31;5032529;28;20041;-80
2022/09/14 03:15:14;;;;;;;11.88;6.90;;;;;;;20.84;70.39;100310.28;5029342;28;20056;-79
2022/09/14 03:17:59;;;;;;;19.42;6.90;;;;;;;20.56;72.07;100321.31;5031738;28;20048;-78
2022/09/14 03:20:44;;;;;;;23.83;8.00;;;;;;;20.96;69.90;100318.19;5038463;28;20056;-81
2022/09/14 03:23:28;;;;;;;;;;;;;;;20.74;70.56;100314.63;5018361;28;20041;-79
2022/09/14 03:26:18;;;;;;;11.27;7.18;;;;;;;20.42;72.31;100314.56;5034565;28;20380;-79
2022/09/14 03:29:05;;;;;;;17.20;7.18;;;;;;;20.95;70.33;100305.53;5034013;28;20052;-79
2022/09/14 03:31:50;;;;;;;14.95;7.43;;;;;;;20.80;70.48;100296.47;5036877;28;20052;-83
2022/09/14 03:34:35;;;;;;;13.63;7.53;;;;;;;20.83;70.65;100297.63;5034758;28;20068;-80
2022/09/14 03:37:20;;;;;;;8.65;6.78;;;;;;;20.90;69.88;100311.47;5034008;28;20068;-82
2022/09/14 03:40:06;;;;;;;11.93;7.28;;;;;;;20.25;73.23;100312.53;5036464;28;20416;-81
2022/09/14 03:42:51;;;;;;;8.18;6.88;;;;;;;20.12;73.58;100303.00;5034307;28;20052;-80
2022/09/14 03:45:36;;;;;;;11.07;7.40;;;;;;;19.92;74.54;100310.03;5034082;28;20052;-79
2022/09/14 03:48:21;;;;;;;12.20;7.95;;;;;;;19.96;75.29;100316.38;5039960;28;20060;-78
2022/09/14 03:51:08;;;;;;;9.15;7.95;;;;;;;20.14;74.36;100313.69;5026993;28;20041;-79
2022/09/14 03:53:53;;;;;;;17.65;7.38;;;;;;;19.99;75.48;100310.06;5026039;28;20053;-76
2022/09/14 03:56:37;;;;;;;11.05;7.78;;;;;;;20.61;72.36;100318.16;5029120;28;20048;-79
2022/09/14 03:59:22;;;;;;;10.40;7.35;;;;;;;20.71;71.17;100317.38;5025956;28;20724;-78
2022/09/14 04:02:07;;;;;;;7.18;6.40;;;;;;;20.69;71.00;100303.16;5037339;28;20417;-79
2022/09/14 04:04:52;;;;;;;18.27;7.20;;;;;;;20.53;71.63;100303.53;5039000;28;20412;-80
2022/09/14 04:07:37;;;;;;;8.73;6.68;;;;;;;20.68;71.05;100313.44;5033007;28;20049;-79
2022/09/14 04:10:21;;;;;;;9.52;6.38;;;;;;;20.55;71.56;100311.44;5033288;28;20527;-79
2022/09/14 04:13:06;;;;;;;12.80;6.53;;;;;;;20.47;71.97;100308.66;5026685;28;20052;-81
2022/09/14 04:15:58;;;;;;;10.35;6.03;;;;;;;20.55;71.26;100314.19;5034900;28;20523;-80
2022/09/14 04:18:43;;;;;;;7.90;6.40;;;;;;;20.44;71.65;100316.94;5042399;28;20056;-81
2022/09/14 04:21:28;;;;;;;9.15;5.97;;;;;;;20.09;74.01;100325.88;5030694;28;20052;-80
2022/09/14 04:24:14;;;;;;;10.32;6.38;;;;;;;20.03;73.73;100321.91;5032980;28;20413;-78
2022/09/14 04:26:59;;;;;;;9.77;6.22;;;;;;;20.10;73.41;100321.16;5029275;28;20060;-79
2022/09/14 04:29:44;;;;;;;9.00;6.68;;;;;;;19.87;75.06;100325.00;5030891;28;20424;-79
2022/09/14 04:32:29;;;;;;;11.85;7.07;;;;;;;19.88;75.36;100331.31;5033404;28;20055;-80
2022/09/14 04:35:14;;;;;;;8.57;5.78;;;;;;;20.24;73.87;100333.03;5031180;28;20423;-79
2022/09/14 04:37:59;;;;;;;9.75;6.30;;;;;;;19.87;75.36;100338.00;5038255;28;20411;-78
2022/09/14 04:40:43;;;;;;;8.60;6.82;;;;;;;19.58;76.96;100340.63;5033386;28;20052;-79
2022/09/14 04:43:28;;;;;;;15.75;7.22;;;;;;;19.97;75.62;100331.75;5033902;28;20049;-77
2022/09/14 04:46:15;;;;;;;10.80;6.35;;;;;;;20.51;72.70;100330.78;5034907;28;20053;-77
2022/09/14 04:49:00;;;;;;;10.55;6.47;;;;;;;20.65;72.29;100325.28;5033961;28;20053;-79
2022/09/14 04:51:45;;;;;;;12.35;6.88;;;;;;;20.54;72.95;100331.94;5033410;28;20048;-78
2022/09/14 04:54:30;;;;;;;13.10;6.72;;;;;;;20.18;74.83;100328.28;5031411;28;20507;-80
2022/09/14 04:57:14;;;;;;;23.67;7.60;;;;;;;19.82;75.98;100332.84;5032045;28;20049;-79
2022/09/14 04:59:58;;;;;;;11.07;6.70;;;;;;;20.29;73.30;100335.41;5029493;28;20057;-78
2022/09/14 05:02:43;;;;;;;8.75;5.55;;;;;;;20.29;73.42;100329.09;5031984;28;20048;-78
2022/09/14 05:05:27;;;;;;;21.83;6.68;;;;;;;20.39;72.91;100328.38;5019654;28;20052;-80
2022/09/14 05:08:12;;;;;;;9.75;6.60;;;;;;;20.50;72.62;100326.44;5037105;28;20121;-80
2022/09/14 05:10:58;;;;;;;8.73;6.43;;;;;;;20.49;72.60;100330.38;5029902;28;20052;-80
2022/09/14 05:13:44;;;;;;;12.77;6.68;;;;;;;20.44;72.32;100326.03;5035330;28;20048;-79
2022/09/14 05:16:33;;;;;;;13.98;6.38;;;;;;;20.34;73.30;100332.31;5033178;28;20052;-79
2022/09/14 05:19:18;;;;;;;8.55;6.20;;;;;;;20.49;73.04;100341.41;5030837;28;20063;-81
2022/09/14 05:22:03;;;;;;;9.38;6.05;;;;;;;20.54;73.40;100331.94;5031561;28;20056;-80
2022/09/14 05:24:48;;;;;;;20.30;7.35;;;;;;;20.43;73.46;100331.94;5027490;28;20049;-80
2022/09/14 05:27:33;;;;;;;9.05;7.22;;;;;;;20.62;72.75;100330.81;5030665;28;20053;-80
2022/09/14 05:30:18;;;;;;;9.25;6.68;;;;;;;20.67;72.83;100322.88;5031242;28;20041;-79
2022/09/14 05:33:02;;;;;;;9.23;6.30;;;;;;;20.05;75.71;100331.41;5033287;28;20057;-80
2022/09/14 05:35:48;;;;;;;8.98;6.90;;;;;;;19.64;78.63;100343.81;5029290;28;20571;-80
2022/09/14 05:38:36;;;;;;;11.63;6.38;;;;;;;20.00;77.18;100336.50;5034982;28;20044;-81
2022/09/14 05:41:21;;;;;;;11.50;8.07;;;;;;;19.71;76.65;100332.78;5033148;28;20057;-80
2022/09/14 05:44:05;;;;;;;43.25;8.50;;;;;;;19.54;78.36;100342.56;5031170;28;20044;-80
2022/09/14 05:46:50;;;;;;;8.93;8.07;;;;;;;19.98;76.56;100323.09;5032715;28;20068;-81
2022/09/14 05:49:35;;;;;;;18.65;9.18;;;;;;;20.04;74.97;100312.47;5033316;28;20056;-81
2022/09/14 05:52:21;;;;;;;14.20;8.02;;;;;;;20.27;74.63;100321.19;5031162;28;20052;-81
2022/09/14 05:55:06;;;;;;;10.13;8.18;;;;;;;20.68;73.75;100324.47;5031489;28;20052;-79
2022/09/14 05:57:51;;;;;;;14.35;8.40;;;;;;;20.91;72.50;100326.88;5032856;28;20523;-81
2022/09/14 06:00:38;;;;;;;14.30;8.63;;;;;;;20.87;72.97;100320.56;5034031;28;20065;-82
2022/09/14 06:03:23;;;;;;;12.82;7.90;;;;;;;20.97;73.20;100319.78;5035567;28;20048;-82
2022/09/14 06:06:10;;;;;;;21.05;8.98;;;;;;;21.04;72.71;100308.69;5033009;28;20049;-81
2022/09/14 06:08:55;;;;;;;8.82;6.75;;;;;;;21.10;72.87;100300.78;5031171;28;20048;-80
2022/09/14 06:11:41;;;;;;;13.82;7.57;;;;;;;21.29;72.00;100292.91;5015783;28;20053;-81
2022/09/14 06:14:26;;;;;;;10.40;7.00;;;;;;;21.38;71.46;100288.94;5013517;28;20044;-81
2022/09/14 06:17:10;;;;;;;14.77;7.38;;;;;;;21.48;70.77;100294.47;5011715;28;20163;-79
2022/09/14 06:19:55;;;;;;;9.23;6.82;;;;;;;21.54;70.95;100292.84;5011712;28;20421;-78
2022/09/14 06:22:40;;;;;;;14.77;7.75;;;;;;;21.71;69.75;100288.44;5015906;28;20061;-81
2022/09/14 06:25:24;;;;;;;11.90;7.18;;;;;;;21.85;69.33;100274.53;5044158;28;20040;-80
2022/09/14 06:28:09;;;;;;;12.90;7.75;;;;;;;21.80;69.13;100286.03;5032489;28;20049;-79
2022/09/14 06:30:55;;;;;;;11.18;7.75;;;;;;;22.51;66.62;100297.56;5030391;28;20412;-81
2022/09/14 06:33:44;;;;;;;12.48;7.28;;;;;;;23.93;61.85;100309.34;5049602;28;20057;-77
2022/09/14 06:36:29;;;;;;;15.07;6.22;;;;;;;25.86;55.71;100309.44;5036758;28;20049;-79
2022/09/14 06:39:13;;;;;;;12.38;5.63;;;;;;;26.94;51.76;100315.81;5037707;28;20075;-77
2022/09/14 06:41:58;;;;;;;7.63;6.43;;;;;;;27.34;50.01;100335.94;5039136;28;20527;-78
2022/09/14 06:44:46;;;;;;;8.55;5.85;;;;;;;27.14;50.24;100344.41;5036191;28;20059;-77
2022/09/14 06:47:32;;;;;;;11.43;4.85;;;;;;;27.42;50.90;100351.28;5031865;28;20052;-79
2022/09/14 06:50:16;;;;;;;15.30;5.15;;;;;;;27.52;50.80;100352.28;5036971;28;20496;-79
2022/09/14 06:53:01;;;;;;;14.63;6.68;;;;;;;26.20;53.99;100348.97;5030238;28;20686;-78
2022/09/14 06:55:46;;;;;;;16.35;7.15;;;;;;;25.69;56.01;100347.59;5025041;28;20057;-79
2022/09/14 06:58:33;;;;;;;17.75;7.07;;;;;;;25.58;54.68;100344.22;5038649;28;20040;-80
2022/09/14 07:01:19;;;;;;;11.88;6.80;;;;;;;26.42;52.54;100346.50;5040460;28;20048;-79
2022/09/14 07:04:04;;;;;;;14.80;6.88;;;;;;;25.85;55.07;100344.13;5041280;28;20040;-80
2022/09/14 07:06:49;;;;;;;19.23;6.15;;;;;;;26.20;53.81;100348.97;5041653;28;20052;-80
2022/09/14 07:09:35;;;;;;;13.20;6.72;;;;;;;27.48;50.91;100357.91;5035648;28;20048;-78
2022/09/14 07:12:20;;;;;;;14.75;6.68;;;;;;;28.16;48.26;100364.47;5040830;28;20527;-79
2022/09/14 07:15:06;;;;;;;12.73;4.93;;;;;;;29.18;45.88;100389.28;5037201;28;20045;-78
2022/09/14 07:17:51;;;;;;;10.93;6.97;;;;;;;26.33;53.20;100380.56;5036678;28;20503;-78
2022/09/14 07:20:35;;;;;;;13.18;7.28;;;;;;;26.27;53.54;100387.06;5039025;28;20040;-80
2022/09/14 07:23:21;;;;;;;10.20;6.00;;;;;;;24.93;57.74;100398.59;5036937;28;20041;-80
2022/09/14 07:26:10;;;;;;;20.58;7.22;;;;;;;25.66;56.87;100417.28;5035506;28;20048;-79
2022/09/14 07:29:01;;;;;;;14.40;5.80;;;;;;;25.46;56.90;100418.00;5029268;28;20048;-79
2022/09/14 07:31:48;;;;;;;13.07;6.60;;;;;;;25.09;58.17;100429.34;5044898;28;20048;-79
2022/09/14 07:34:33;;;;;;;11.15;5.45;;;;;;;24.84;58.89;100440.03;5035256;28;20060;-78
2022/09/14 07:37:18;;;;;;;18.33;6.43;;;;;;;24.95;58.75;100449.81;5034698;28;20057;-79
2022/09/14 07:40:02;;;;;;;;;;;;;;;24.69;59.36;100456.88;5034730;28;20060;-75
2022/09/14 07:42:54;;;;;;;12.38;6.90;;;;;;;24.05;61.62;100458.81;5034379;28;19913;-79
2022/09/14 07:45:38;;;;;;;8.40;5.00;;;;;;;24.53;60.26;100470.59;5038073;28;20327;-78
2022/09/14 07:48:24;;;;;;;10.32;6.65;;;;;;;24.46;60.11;100469.91;5032552;28;20048;-78
2022/09/14 07:51:09;;;;;;;8.35;5.75;;;;;;;24.43;60.06;100477.06;5029347;28;20052;-79
2022/09/14 07:53:55;;;;;;;141.75;28.17;;;;;;;24.50;60.05;100488.13;5035573;28;20052;-78
2022/09/14 07:56:39;;;;;;;223.63;38.92;;;;;;;24.60;59.76;100498.31;5029067;28;20520;-79
2022/09/14 07:59:24;;;;;;;65.05;12.48;;;;;;;24.60;59.87;100489.97;5025670;28;20045;-77
2022/09/14 08:02:10;;;;;;;47.00;12.52;;;;;;;24.47;60.48;100488.97;5036532;28;20041;-78
2022/09/14 08:04:54;;;;;;;33.40;7.45;;;;;;;24.37;60.92;100484.31;5039315;28;20038;-80
2022/09/14 08:07:39;;;;;;;;;;;;;;;24.17;62.14;100486.13;5037900;28;20061;-78
2022/09/14 08:10:25;;;;;;;13.10;5.77;;;;;;;24.45;60.65;100483.03;5037897;28;19913;-79
2022/09/14 08:13:09;;;;;;;23.90;6.18;;;;;;;24.20;61.66;100488.84;5038180;28;20056;-78
2022/09/14 08:15:59;;;;;;;19.92;7.90;;;;;;;23.88;62.43;100486.34;5037170;28;20048;-77
2022/09/14 08:18:44;;;;;;;11.77;8.32;;;;;;;23.97;62.63;100482.34;5037879;28;20111;-78
2022/09/14 08:21:31;;;;;;;20.05;5.43;;;;;;;24.49;59.93;100494.09;5037872;28;20068;-79
2022/09/14 08:24:18;;;;;;;31.70;8.30;;;;;;;24.16;61.90;100490.06;5037825;28;20060;-80
2022/09/14 08:27:03;;;;;;;9.23;4.75;;;;;;;24.36;60.98;100482.72;5037181;28;20056;-79
2022/09/14 08:29:47;;;;;;;9.80;5.68;;;;;;;24.22;61.35;100488.44;5037826;28;20052;-80
2022/09/14 08:32:32;;;;;;;;;;;;;;;24.45;60.42;100508.03;5037807;28;20045;-77
2022/09/14 08:35:16;;;;;;;9.10;4.95;;;;;;;24.60;59.32;100491.97;5037324;28;19942;-79
2022/09/14 08:38:01;;;;;;;7.50;3.67;;;;;;;24.58;59.34;100495.16;5037268;28;20519;-79
2022/09/14 08:40:46;;;;;;;8.27;4.97;;;;;;;24.65;59.35;100483.97;5037294;28;20052;-80
2022/09/14 08:43:31;;;;;;;7.38;4.32;;;;;;;24.72;58.97;100488.66;5036488;28;20125;-79
2022/09/14 08:46:42;;;;;;;11.60;4.65;;;;;;;24.62;59.61;100489.56;5037374;28;20060;-79
2022/09/14 08:50:04;;;;;;;6.32;3.90;;;;;;;24.57;59.55;100493.59;5044710;28;20057;-79
2022/09/14 08:52:53;;;;;;;7.25;3.25;;;;;;;24.69;59.00;100504.16;5036422;28;20052;-79
2022/09/14 08:55:47;;;;;;;4.35;3.40;;;;;;;24.71;58.70;100498.19;5036120;28;20045;-77
2022/09/14 08:58:37;;;;;;;11.98;4.15;;;;;;;24.79;58.57;100485.00;5034571;28;20427;-76
2022/09/14 09:01:34;;;;;;;8.15;4.10;;;;;;;24.76;58.86;100485.81;5034621;28;20047;-77
2022/09/14 09:04:35;;;;;;;7.53;4.13;;;;;;;24.67;58.95;100491.91;5035478;28;20056;-79
2022/09/14 09:07:45;;;;;;;7.47;2.72;;;;;;;24.59;59.09;100504.28;5035231;28;20048;-79
2022/09/14 09:10:32;;;;;;;6.53;3.47;;;;;;;24.65;58.90;100509.00;5035721;28;20048;-79
2022/09/14 09:13:21;;;;;;;6.43;2.65;;;;;;;24.65;58.81;100511.78;5035917;28;20335;-77
2022/09/14 09:16:09;;;;;;;7.40;2.47;;;;;;;24.53;59.44;100509.53;5035525;28;20052;-78
2022/09/14 09:19:01;;;;;;;6.03;2.58;;;;;;;24.58;58.99;100517.41;5034155;28;20396;-77
2022/09/14 09:21:47;;;;;;;7.40;3.05;;;;;;;24.58;59.17;100522.22;5033240;28;20099;-80
2022/09/14 09:24:38;;;;;;;4.25;2.45;;;;;;;24.53;59.30;100519.88;5034474;28;20514;-78
2022/09/14 09:27:27;;;;;;;4.13;1.77;;;;;;;24.48;59.43;100535.00;5034599;28;20057;-77
2022/09/14 09:30:14;;;;;;;5.22;2.72;;;;;;;24.50;59.66;100527.03;5034695;28;20176;-79
2022/09/14 09:32:59;;;;;;;6.68;2.78;;;;;;;24.28;60.72;100539.59;5035620;28;20060;-79
2022/09/14 09:36:12;;;;;;;11.82;3.28;;;;;;;24.42;59.69;100547.78;5037981;28;20048;-80
2022/09/14 09:38:58;;;;;;;6.88;3.17;;;;;;;24.48;59.78;100537.78;5034588;28;20056;-77
2022/09/14 09:41:46;;;;;;;11.60;6.88;;;;;;;24.42;60.94;100520.00;5036202;28;20053;-79
2022/09/14 09:44:56;;;;;;;6.30;2.70;;;;;;;24.60;61.33;100511.44;5040004;28;20047;-80
2022/09/14 09:47:41;;;;;;;6.85;3.25;;;;;;;24.68;59.04;100510.97;5027930;28;20041;-76
2022/09/14 09:50:26;;;;;;;10.57;2.45;;;;;;;24.77;58.97;100498.53;5033790;28;20052;-76
2022/09/14 09:53:16;;;;;;;13.07;3.85;;;;;;;24.80;59.16;100483.78;5035400;28;20048;-77
2022/09/14 09:56:02;;;;;;;8.73;3.30;;;;;;;24.74;59.42;100485.47;5026983;28;20531;-79
2022/09/14 09:58:50;;;;;;;5.40;3.15;;;;;;;24.76;58.96;100467.13;5028916;28;20056;-81
2022/09/14 10:01:35;;;;;;;3.97;2.58;;;;;;;24.67;60.36;100453.75;5050097;28;20056;-80
2022/09/14 10:04:28;;;;;;;18.20;7.60;;;;;;;24.75;61.48;100446.09;5026926;28;20044;-81
2022/09/14 10:07:22;;;;;;;9.65;4.75;;;;;;;24.96;59.29;100436.69;5035088;28;20068;-80
2022/09/14 10:10:10;;;;;;;9.40;7.20;;;;;;;25.24;60.78;100418.78;5032585;28;20044;-80
2022/09/14 10:12:55;;;;;;;6.68;3.28;;;;;;;25.10;57.95;100403.06;5035269;28;20072;-81
2022/09/14 10:15:42;;;;;;;12.13;7.38;;;;;;;25.36;59.81;100387.53;5035046;28;20049;-80
2022/09/14 10:18:29;;;;;;;6.80;3.33;;;;;;;25.39;57.03;100376.38;5034969;28;20053;-79
2022/09/14 10:21:22;;;;;;;14.93;5.22;;;;;;;25.37;57.21;100353.72;5035546;28;20412;-81
2022/09/14 10:24:19;;;;;;;6.40;3.22;;;;;;;25.16;57.89;100344.94;5034993;28;20056;-80
2022/09/14 10:27:40;;;;;;;4.85;2.72;;;;;;;24.74;59.58;100340.84;5034845;28;20412;-80
2022/09/14 10:30:31;;;;;;;6.78;3.53;;;;;;;25.09;58.50;100298.56;5037466;28;20053;-81
2022/09/14 10:33:17;;;;;;;4.82;3.03;;;;;;;25.07;58.44;100292.63;5032997;28;20101;-80
2022/09/14 10:36:22;;;;;;;9.90;3.63;;;;;;;25.92;55.06;100275.06;5033699;28;20056;-80
2022/09/14 10:39:34;;;;;;;8.65;2.95;;;;;;;25.45;56.52;100263.25;5031388;28;20061;-80
2022/09/14 10:42:36;;;;;;;5.95;2.40;;;;;;;25.34;56.76;100253.56;5029619;28;20409;-79
2022/09/14 10:45:28;;;;;;;6.47;2.00;;;;;;;25.04;57.54;100255.28;5033613;28;20056;-80
2022/09/14 10:48:22;;;;;;;9.02;2.33;;;;;;;24.99;57.21;100247.41;5032900;28;20057;-79
2022/09/14 10:51:28;;;;;;;3.35;2.03;;;;;;;24.94;57.99;100247.91;5033326;28;20412;-80
2022/09/14 10:54:28;;;;;;;12.18;2.30;;;;;;;24.93;58.07;100256.69;5033241;28;20052;-78
2022/09/14 10:57:56;;;;;;;5.30;1.75;;;;;;;24.80;58.84;100289.84;5023557;28;20045;-80
2022/09/14 11:00:55;;;;;;;9.40;4.10;;;;;;;25.14;58.34;100306.41;5042226;28;20409;-79
2022/09/14 11:03:55;;;;;;;6.70;2.53;;;;;;;25.00;57.59;100315.00;5031673;28;20045;-79
2022/09/14 11:06:42;;;;;;;5.22;1.98;;;;;;;24.83;57.18;100314.06;5032456;28;20531;-80
2022/09/14 11:09:58;;;;;;;10.85;2.90;;;;;;;25.16;56.77;100315.13;5030259;28;20049;-80
2022/09/14 11:13:24;;;;;;;6.35;2.08;;;;;;;25.33;55.96;100288.97;5036894;28;20091;-80
2022/09/14 11:16:14;;;;;;;;;;;;;;;25.54;55.04;100282.22;5033489;28;20129;-78
2022/09/14 11:19:09;;;;;;;7.70;3.08;;;;;;;25.48;55.42;100267.22;5032625;28;20388;-78
2022/09/14 11:21:57;;;;;;;7.22;2.40;;;;;;;25.48;54.91;100242.94;5036472;28;20067;-79
2022/09/14 11:24:50;;;;;;;15.27;5.82;;;;;;;25.49;55.21;100216.66;5031852;28;20068;-80
2022/09/14 11:27:50;;;;;;;3.53;2.08;;;;;;;25.67;54.14;100193.25;5034653;28;20033;-79
2022/09/14 11:30:41;;;;;;;9.43;3.03;;;;;;;25.61;54.36;100203.31;5032940;28;20044;-75
2022/09/14 11:33:45;;;;;;;4.05;1.77;;;;;;;25.93;50.92;100206.22;5030456;28;20040;-79
2022/09/14 11:36:43;;;;;;;11.00;3.15;;;;;;;25.58;54.99;100220.91;5026955;28;20066;-80
2022/09/14 11:39:32;;;;;;;7.68;1.88;;;;;;;25.48;54.78;100240.16;5031103;28;20044;-79
2022/09/14 11:42:31;;;;;;;5.90;1.92;;;;;;;26.24;50.12;100252.13;5030934;28;20052;-79
2022/09/14 11:45:40;;;;;;;7.18;2.50;;;;;;;25.64;53.55;100274.88;5030236;28;20052;-80
2022/09/14 11:48:38;;;;;;;4.82;1.77;;;;;;;26.31;51.35;100293.75;5030431;28;20057;-80
2022/09/14 11:51:28;;;;;;;3.80;1.13;;;;;;;25.47;54.04;100291.47;5029133;28;20037;-79
2022/09/14 11:54:17;;;;;;;8.15;1.77;;;;;;;25.49;53.59;100297.41;5027944;28;20048;-79
2022/09/14 11:57:02;;;;;;;3.55;1.25;;;;;;;25.36;54.11;100310.38;5028066;28;20440;-79
2022/09/14 11:59:51;;;;;;;5.90;1.27;;;;;;;25.27;54.19;100296.22;5040477;28;20121;-80
2022/09/14 12:02:36;;;;;;;3.30;1.23;;;;;;;25.57;53.50;100261.88;5038965;28;20048;-81
2022/09/14 12:05:20;;;;;;;;;;;;;;;25.63;53.00;100253.81;5039848;28;20033;-78
2022/09/14 12:08:26;;;;;;;7.85;1.52;;;;;;;26.16;51.98;100233.19;5036683;28;19913;-80
2022/09/14 12:11:11;;;;;;;3.33;1.55;;;;;;;26.25;51.19;100250.13;5034320;28;20048;-80
2022/09/14 12:14:28;;;;;;;2.63;1.42;;;;;;;26.18;51.56;100287.25;5035534;28;20511;-80
2022/09/14 12:17:29;;;;;;;2.13;1.10;;;;;;;25.76;53.35;100280.59;5030058;28;20045;-83
2022/09/14 12:20:27;;;;;;;4.22;1.30;;;;;;;26.06;54.05;100271.19;5032605;28;20048;-77
2022/09/14 12:23:27;;;;;;;3.13;1.23;;;;;;;26.06;52.73;100250.91;5037018;28;20124;-80
2022/09/14 12:26:18;;;;;;;7.05;1.75;;;;;;;25.74;52.90;100249.59;5034425;28;20387;-79
2022/09/14 12:29:31;;;;;;;4.85;1.73;;;;;;;26.28;50.79;100250.03;5047889;28;20557;-78
2022/09/14 12:32:39;;;;;;;2.88;1.05;;;;;;;25.76;52.89;100257.50;5027887;28;20417;-81
2022/09/14 12:35:35;;;;;;;3.85;1.35;;;;;;;25.67;52.97;100257.31;5044181;28;20048;-80
2022/09/14 12:38:29;;;;;;;6.30;1.20;;;;;;;25.79;52.67;100268.59;5035924;28;20515;-78
2022/09/14 12:41:13;;;;;;;5.20;1.70;;;;;;;25.95;51.24;100267.88;5034710;28;20064;-79
2022/09/14 12:43:58;;;;;;;7.13;1.10;;;;;;;25.71;52.91;100266.38;5035964;28;20052;-80
2022/09/14 12:46:42;;;;;;;;;;;;;;;25.72;53.02;100267.94;5036951;28;20051;-77
2022/09/14 12:49:30;;;;;;;3.42;0.70;;;;;;;25.80;52.46;100272.19;5035846;28;19912;-80
2022/09/14 12:52:39;;;;;;;6.47;1.70;;;;;;;25.92;51.91;100268.72;5041350;28;20116;-80
2022/09/14 12:55:39;;;;;;;1.48;0.70;;;;;;;25.85;52.34;100271.66;5035205;28;20527;-79
2022/09/14 12:58:45;;;;;;;6.40;1.23;;;;;;;26.37;52.16;100263.34;5038253;28;20056;-80
2022/09/14 13:01:51;;;;;;;5.70;1.50;;;;;;;25.72;52.95;100254.03;5035590;28;20041;-81
2022/09/14 13:04:37;;;;;;;10.80;1.98;;;;;;;25.87;52.38;100255.28;5035394;28;20515;-78
2022/09/14 13:07:27;;;;;;;1.95;1.10;;;;;;;25.77;52.97;100261.88;5035689;28;20045;-79
2022/09/14 13:10:21;;;;;;;4.03;1.13;;;;;;;26.60;50.30;100265.22;5035372;28;20048;-78